Terminal Aerodrome Forecast
Issued by NWS

Home | Current Version | Previous Version | Text Only | Print | Product List | Glossary On
Versions: 1 2 3 4 5 6 7 8 9 10 11 12 13
000
FTUS43 KMQT 300520
TAFSAW
TAF
KSAW 300520Z 3006/3106 24006KT P6SM SCT080 WS005/27030KT
     FM301300 30015G22KT P6SM SCT080
     FM310100 24006KT P6SM BKN080=

USA.gov is the U.S. government's official web portal to all federal, state and local government web resources and services.